sensor_id;sensor_type;location;lat;lon;timestamp;temperature;humidity
51733;DHT22;39139;53.144;6.244;2023-06-10T00:01:54;16.20;99.90
51733;DHT22;39139;53.144;6.244;2023-06-10T00:04:25;16.00;99.90
51733;DHT22;39139;53.144;6.244;2023-06-10T00:06:51;16.20;99.90
51733;DHT22;39139;53.144;6.244;2023-06-10T00:09:17;16.20;99.90
51733;DHT22;39139;53.144;6.244;2023-06-10T00:11:44;16.40;99.90
51733;DHT22;39139;53.144;6.244;2023-06-10T00:14:09;16.20;99.90
51733;DHT22;39139;53.144;6.244;2023-06-10T00:16:35;16.20;99.90
51733;DHT22;39139;53.144;6.244;2023-06-10T00:19:02;16.20;99.90
51733;DHT22;39139;53.144;6.244;2023-06-10T00:21:33;16.10;99.90
51733;DHT22;39139;53.144;6.244;2023-06-10T00:24:08;16.10;99.90
51733;DHT22;39139;53.144;6.244;2023-06-10T00:26:41;16.00;99.90
51733;DHT22;39139;53.144;6.244;2023-06-10T00:29:07;16.10;99.90
51733;DHT22;39139;53.144;6.244;2023-06-10T00:31:34;16.00;99.90
51733;DHT22;39139;53.144;6.244;2023-06-10T00:34:00;16.00;99.90
51733;DHT22;39139;53.144;6.244;2023-06-10T00:36:26;16.00;99.90
51733;DHT22;39139;53.144;6.244;2023-06-10T00:38:52;16.00;99.90
51733;DHT22;39139;53.144;6.244;2023-06-10T00:41:17;16.00;99.90
51733;DHT22;39139;53.144;6.244;2023-06-10T00:43:43;15.90;99.90
51733;DHT22;39139;53.144;6.244;2023-06-10T00:46:10;15.90;99.90
51733;DHT22;39139;53.144;6.244;2023-06-10T00:48:37;15.80;99.90
51733;DHT22;39139;53.144;6.244;2023-06-10T00:51:05;15.70;99.90
51733;DHT22;39139;53.144;6.244;2023-06-10T00:53:32;15.70;99.90
51733;DHT22;39139;53.144;6.244;2023-06-10T00:55:58;15.60;99.90
51733;DHT22;39139;53.144;6.244;2023-06-10T00:58:24;15.60;99.90
51733;DHT22;39139;53.144;6.244;2023-06-10T01:00:51;15.90;99.90
51733;DHT22;39139;53.144;6.244;2023-06-10T01:03:17;15.40;99.90
51733;DHT22;39139;53.144;6.244;2023-06-10T01:05:44;15.40;99.90
51733;DHT22;39139;53.144;6.244;2023-06-10T01:08:31;15.40;99.90
51733;DHT22;39139;53.144;6.244;2023-06-10T01:11:00;15.40;99.90
51733;DHT22;39139;53.144;6.244;2023-06-10T01:13:28;15.20;99.90
51733;DHT22;39139;53.144;6.244;2023-06-10T01:15:58;15.20;99.90
51733;DHT22;39139;53.144;6.244;2023-06-10T01:18:30;15.20;99.90
51733;DHT22;39139;53.144;6.244;2023-06-10T01:20:56;15.20;99.90
51733;DHT22;39139;53.144;6.244;2023-06-10T01:23:23;15.20;99.90
51733;DHT22;39139;53.144;6.244;2023-06-10T01:26:09;15.10;99.90
51733;DHT22;39139;53.144;6.244;2023-06-10T01:31:18;15.00;99.90
51733;DHT22;39139;53.144;6.244;2023-06-10T01:33:49;15.00;99.90
51733;DHT22;39139;53.144;6.244;2023-06-10T01:36:17;15.00;99.90
51733;DHT22;39139;53.144;6.244;2023-06-10T01:38:45;15.00;99.90
51733;DHT22;39139;53.144;6.244;2023-06-10T01:41:14;14.90;99.90
51733;DHT22;39139;53.144;6.244;2023-06-10T01:43:40;14.90;99.90
51733;DHT22;39139;53.144;6.244;2023-06-10T01:46:07;14.90;99.90
51733;DHT22;39139;53.144;6.244;2023-06-10T01:48:33;14.90;99.90
51733;DHT22;39139;53.144;6.244;2023-06-10T01:50:59;14.80;99.90
51733;DHT22;39139;53.144;6.244;2023-06-10T01:53:24;14.90;99.90
51733;DHT22;39139;53.144;6.244;2023-06-10T01:55:50;14.80;99.90
51733;DHT22;39139;53.144;6.244;2023-06-10T01:58:16;14.80;99.90
51733;DHT22;39139;53.144;6.244;2023-06-10T02:00:42;14.80;99.90
51733;DHT22;39139;53.144;6.244;2023-06-10T02:03:07;14.60;99.90
51733;DHT22;39139;53.144;6.244;2023-06-10T02:05:33;14.80;99.90
51733;DHT22;39139;53.144;6.244;2023-06-10T02:07:58;14.90;99.90
51733;DHT22;39139;53.144;6.244;2023-06-10T02:10:24;14.80;99.90
51733;DHT22;39139;53.144;6.244;2023-06-10T02:12:50;14.90;99.90
51733;DHT22;39139;53.144;6.244;2023-06-10T02:15:16;14.90;99.90
51733;DHT22;39139;53.144;6.244;2023-06-10T02:17:41;14.80;99.90
51733;DHT22;39139;53.144;6.244;2023-06-10T02:20:07;14.80;99.90
51733;DHT22;39139;53.144;6.244;2023-06-10T02:22:36;14.80;99.90
51733;DHT22;39139;53.144;6.244;2023-06-10T02:25:03;14.80;99.90
51733;DHT22;39139;53.144;6.244;2023-06-10T02:27:29;14.70;99.90
51733;DHT22;39139;53.144;6.244;2023-06-10T02:29:56;14.70;99.90
51733;DHT22;39139;53.144;6.244;2023-06-10T02:32:22;14.70;99.90
51733;DHT22;39139;53.144;6.244;2023-06-10T02:34:48;14.70;99.90
51733;DHT22;39139;53.144;6.244;2023-06-10T02:37:15;14.60;99.90
51733;DHT22;39139;53.144;6.244;2023-06-10T02:39:41;14.60;99.90
51733;DHT22;39139;53.144;6.244;2023-06-10T02:42:06;14.60;99.90
51733;DHT22;39139;53.144;6.244;2023-06-10T02:44:32;14.60;99.90
51733;DHT22;39139;53.144;6.244;2023-06-10T02:46:58;14.50;99.90
51733;DHT22;39139;53.144;6.244;2023-06-10T02:49:24;14.50;99.90
51733;DHT22;39139;53.144;6.244;2023-06-10T02:51:50;14.60;99.90
51733;DHT22;39139;53.144;6.244;2023-06-10T02:54:19;14.40;99.90
51733;DHT22;39139;53.144;6.244;2023-06-10T02:56:45;14.40;99.90
51733;DHT22;39139;53.144;6.244;2023-06-10T02:59:11;14.40;99.90
51733;DHT22;39139;53.144;6.244;2023-06-10T03:01:37;14.50;99.90
51733;DHT22;39139;53.144;6.244;2023-06-10T03:04:04;14.30;99.90
51733;DHT22;39139;53.144;6.244;2023-06-10T03:06:30;14.20;99.90
51733;DHT22;39139;53.144;6.244;2023-06-10T03:09:02;14.30;99.90
51733;DHT22;39139;53.144;6.244;2023-06-10T03:11:29;14.30;99.90
51733;DHT22;39139;53.144;6.244;2023-06-10T03:13:57;14.20;99.90
51733;DHT22;39139;53.144;6.244;2023-06-10T03:16:23;14.30;99.90
51733;DHT22;39139;53.144;6.244;2023-06-10T03:18:50;14.30;99.90
51733;DHT22;39139;53.144;6.244;2023-06-10T03:21:16;14.30;99.90
51733;DHT22;39139;53.144;6.244;2023-06-10T03:23:42;14.30;99.90
51733;DHT22;39139;53.144;6.244;2023-06-10T03:26:07;14.20;99.90
51733;DHT22;39139;53.144;6.244;2023-06-10T03:28:35;14.20;99.90
51733;DHT22;39139;53.144;6.244;2023-06-10T03:31:01;14.10;99.90
51733;DHT22;39139;53.144;6.244;2023-06-10T03:33:26;14.10;99.90
51733;DHT22;39139;53.144;6.244;2023-06-10T03:35:52;14.00;99.90
51733;DHT22;39139;53.144;6.244;2023-06-10T03:38:17;14.00;99.90
51733;DHT22;39139;53.144;6.244;2023-06-10T03:40:43;14.00;99.90
51733;DHT22;39139;53.144;6.244;2023-06-10T03:43:09;14.00;99.90
51733;DHT22;39139;53.144;6.244;2023-06-10T03:45:34;14.00;99.90
51733;DHT22;39139;53.144;6.244;2023-06-10T03:48:01;14.00;99.90
51733;DHT22;39139;53.144;6.244;2023-06-10T03:50:29;14.10;99.90
51733;DHT22;39139;53.144;6.244;2023-06-10T03:52:54;14.40;99.90
51733;DHT22;39139;53.144;6.244;2023-06-10T03:55:20;14.20;99.90
51733;DHT22;39139;53.144;6.244;2023-06-10T03:57:47;14.10;99.90
51733;DHT22;39139;53.144;6.244;2023-06-10T04:00:15;14.20;99.90
51733;DHT22;39139;53.144;6.244;2023-06-10T04:02:41;14.20;99.90
51733;DHT22;39139;53.144;6.244;2023-06-10T04:05:15;14.30;99.90
51733;DHT22;39139;53.144;6.244;2023-06-10T04:07:42;14.20;99.90
51733;DHT22;39139;53.144;6.244;2023-06-10T04:10:10;14.20;99.90
51733;DHT22;39139;53.144;6.244;2023-06-10T04:12:36;14.20;99.90
51733;DHT22;39139;53.144;6.244;2023-06-10T04:15:06;14.20;99.90
51733;DHT22;39139;53.144;6.244;2023-06-10T04:17:32;14.30;99.90
51733;DHT22;39139;53.144;6.244;2023-06-10T04:19:57;14.30;99.90
51733;DHT22;39139;53.144;6.244;2023-06-10T04:22:24;14.30;99.90
51733;DHT22;39139;53.144;6.244;2023-06-10T04:24:49;14.30;99.90
51733;DHT22;39139;53.144;6.244;2023-06-10T04:27:15;14.30;99.90
51733;DHT22;39139;53.144;6.244;2023-06-10T04:29:41;14.20;99.90
51733;DHT22;39139;53.144;6.244;2023-06-10T04:32:07;14.30;99.90
51733;DHT22;39139;53.144;6.244;2023-06-10T04:34:33;14.30;99.90
51733;DHT22;39139;53.144;6.244;2023-06-10T04:36:59;14.30;99.90
51733;DHT22;39139;53.144;6.244;2023-06-10T04:39:25;14.40;99.90
51733;DHT22;39139;53.144;6.244;2023-06-10T04:41:50;14.40;99.90
51733;DHT22;39139;53.144;6.244;2023-06-10T04:44:16;14.50;99.90
51733;DHT22;39139;53.144;6.244;2023-06-10T04:46:42;14.50;99.90
51733;DHT22;39139;53.144;6.244;2023-06-10T04:49:07;14.60;99.90
51733;DHT22;39139;53.144;6.244;2023-06-10T04:51:33;14.60;99.90
51733;DHT22;39139;53.144;6.244;2023-06-10T04:53:59;14.70;99.90
51733;DHT22;39139;53.144;6.244;2023-06-10T04:56:29;14.70;99.90
51733;DHT22;39139;53.144;6.244;2023-06-10T04:58:56;14.80;99.90
51733;DHT22;39139;53.144;6.244;2023-06-10T05:01:21;14.90;99.90
51733;DHT22;39139;53.144;6.244;2023-06-10T05:03:47;14.90;99.90
51733;DHT22;39139;53.144;6.244;2023-06-10T05:06:12;15.00;99.90
51733;DHT22;39139;53.144;6.244;2023-06-10T05:08:38;14.70;99.90
51733;DHT22;39139;53.144;6.244;2023-06-10T05:11:04;15.00;99.90
51733;DHT22;39139;53.144;6.244;2023-06-10T05:13:29;15.10;99.90
51733;DHT22;39139;53.144;6.244;2023-06-10T05:15:55;15.30;99.90
51733;DHT22;39139;53.144;6.244;2023-06-10T05:18:20;15.20;99.90
51733;DHT22;39139;53.144;6.244;2023-06-10T05:20:46;15.20;99.90
51733;DHT22;39139;53.144;6.244;2023-06-10T05:23:12;15.30;99.90
51733;DHT22;39139;53.144;6.244;2023-06-10T05:25:38;15.30;99.90
51733;DHT22;39139;53.144;6.244;2023-06-10T05:28:03;15.40;99.90
51733;DHT22;39139;53.144;6.244;2023-06-10T05:30:29;15.40;99.90
51733;DHT22;39139;53.144;6.244;2023-06-10T05:32:55;15.60;99.90
51733;DHT22;39139;53.144;6.244;2023-06-10T05:35:21;15.50;99.90
51733;DHT22;39139;53.144;6.244;2023-06-10T05:37:47;15.60;99.90
51733;DHT22;39139;53.144;6.244;2023-06-10T05:40:13;15.60;99.90
51733;DHT22;39139;53.144;6.244;2023-06-10T05:42:39;15.60;99.90
51733;DHT22;39139;53.144;6.244;2023-06-10T05:45:06;15.70;99.90
51733;DHT22;39139;53.144;6.244;2023-06-10T05:47:32;15.80;99.90
51733;DHT22;39139;53.144;6.244;2023-06-10T05:49:57;15.80;99.90
51733;DHT22;39139;53.144;6.244;2023-06-10T05:52:23;15.80;99.90
51733;DHT22;39139;53.144;6.244;2023-06-10T05:54:50;15.90;99.90
51733;DHT22;39139;53.144;6.244;2023-06-10T05:57:15;15.80;99.90
51733;DHT22;39139;53.144;6.244;2023-06-10T05:59:41;16.00;99.90
51733;DHT22;39139;53.144;6.244;2023-06-10T06:02:06;15.90;99.90
51733;DHT22;39139;53.144;6.244;2023-06-10T06:04:32;16.00;99.90
51733;DHT22;39139;53.144;6.244;2023-06-10T06:06:58;16.10;99.90
51733;DHT22;39139;53.144;6.244;2023-06-10T06:09:23;16.20;99.90
51733;DHT22;39139;53.144;6.244;2023-06-10T06:11:49;16.70;99.90
51733;DHT22;39139;53.144;6.244;2023-06-10T06:14:15;16.30;99.90
51733;DHT22;39139;53.144;6.244;2023-06-10T06:16:40;16.30;99.90
51733;DHT22;39139;53.144;6.244;2023-06-10T06:19:06;16.40;99.90
51733;DHT22;39139;53.144;6.244;2023-06-10T06:21:32;16.50;99.90
51733;DHT22;39139;53.144;6.244;2023-06-10T06:23:58;16.60;99.90
51733;DHT22;39139;53.144;6.244;2023-06-10T06:26:24;16.50;99.90
51733;DHT22;39139;53.144;6.244;2023-06-10T06:28:50;16.80;99.90
51733;DHT22;39139;53.144;6.244;2023-06-10T06:31:17;16.80;99.90
51733;DHT22;39139;53.144;6.244;2023-06-10T06:33:43;16.90;99.90
51733;DHT22;39139;53.144;6.244;2023-06-10T06:36:08;17.00;99.90
51733;DHT22;39139;53.144;6.244;2023-06-10T06:38:34;17.00;99.90
51733;DHT22;39139;53.144;6.244;2023-06-10T06:41:00;17.10;99.90
51733;DHT22;39139;53.144;6.244;2023-06-10T06:43:29;17.20;99.90
51733;DHT22;39139;53.144;6.244;2023-06-10T06:45:56;17.30;99.90
51733;DHT22;39139;53.144;6.244;2023-06-10T06:48:22;17.40;99.90
51733;DHT22;39139;53.144;6.244;2023-06-10T06:50:48;17.50;99.90
51733;DHT22;39139;53.144;6.244;2023-06-10T06:53:13;17.70;99.90
51733;DHT22;39139;53.144;6.244;2023-06-10T06:55:39;17.90;99.90
51733;DHT22;39139;53.144;6.244;2023-06-10T06:58:05;18.10;99.90
51733;DHT22;39139;53.144;6.244;2023-06-10T07:00:31;18.30;99.90
51733;DHT22;39139;53.144;6.244;2023-06-10T07:02:57;18.30;99.90
51733;DHT22;39139;53.144;6.244;2023-06-10T07:05:23;18.30;99.90
51733;DHT22;39139;53.144;6.244;2023-06-10T07:07:50;18.30;99.90
51733;DHT22;39139;53.144;6.244;2023-06-10T07:10:21;18.40;99.90
51733;DHT22;39139;53.144;6.244;2023-06-10T07:12:47;18.60;99.90
51733;DHT22;39139;53.144;6.244;2023-06-10T07:15:13;18.70;99.90
51733;DHT22;39139;53.144;6.244;2023-06-10T07:17:39;18.70;99.90
51733;DHT22;39139;53.144;6.244;2023-06-10T07:20:05;18.60;99.90
51733;DHT22;39139;53.144;6.244;2023-06-10T07:22:30;18.70;99.90
51733;DHT22;39139;53.144;6.244;2023-06-10T07:24:57;18.70;99.90
51733;DHT22;39139;53.144;6.244;2023-06-10T07:27:22;18.80;99.90
51733;DHT22;39139;53.144;6.244;2023-06-10T07:29:48;18.80;99.90
51733;DHT22;39139;53.144;6.244;2023-06-10T07:32:14;18.80;99.90
51733;DHT22;39139;53.144;6.244;2023-06-10T07:34:39;18.80;99.90
51733;DHT22;39139;53.144;6.244;2023-06-10T07:37:05;18.80;99.90
51733;DHT22;39139;53.144;6.244;2023-06-10T07:39:31;18.80;99.90
51733;DHT22;39139;53.144;6.244;2023-06-10T07:41:56;19.30;99.90
51733;DHT22;39139;53.144;6.244;2023-06-10T07:44:23;18.90;99.90
51733;DHT22;39139;53.144;6.244;2023-06-10T07:46:48;19.00;99.90
51733;DHT22;39139;53.144;6.244;2023-06-10T07:49:15;19.00;99.90
51733;DHT22;39139;53.144;6.244;2023-06-10T07:51:41;19.10;99.90
51733;DHT22;39139;53.144;6.244;2023-06-10T07:54:06;19.10;99.90
51733;DHT22;39139;53.144;6.244;2023-06-10T07:56:33;19.20;99.90
51733;DHT22;39139;53.144;6.244;2023-06-10T07:58:58;19.30;99.90
51733;DHT22;39139;53.144;6.244;2023-06-10T08:01:24;19.40;99.90
51733;DHT22;39139;53.144;6.244;2023-06-10T08:03:50;19.60;99.90
51733;DHT22;39139;53.144;6.244;2023-06-10T08:06:16;19.70;99.90
51733;DHT22;39139;53.144;6.244;2023-06-10T08:08:43;20.00;99.90
51733;DHT22;39139;53.144;6.244;2023-06-10T08:11:13;20.30;99.90
51733;DHT22;39139;53.144;6.244;2023-06-10T08:13:38;20.90;99.90
51733;DHT22;39139;53.144;6.244;2023-06-10T08:16:05;21.40;99.90
51733;DHT22;39139;53.144;6.244;2023-06-10T08:18:31;21.90;99.90
51733;DHT22;39139;53.144;6.244;2023-06-10T08:20:57;22.20;99.90
51733;DHT22;39139;53.144;6.244;2023-06-10T08:23:22;22.60;99.90
51733;DHT22;39139;53.144;6.244;2023-06-10T08:25:48;23.00;99.90
51733;DHT22;39139;53.144;6.244;2023-06-10T08:28:14;23.30;99.90
51733;DHT22;39139;53.144;6.244;2023-06-10T08:30:40;23.60;99.90
51733;DHT22;39139;53.144;6.244;2023-06-10T08:33:06;23.90;99.90
51733;DHT22;39139;53.144;6.244;2023-06-10T08:35:33;24.20;99.90
51733;DHT22;39139;53.144;6.244;2023-06-10T08:38:02;24.30;99.90
51733;DHT22;39139;53.144;6.244;2023-06-10T08:40:28;24.60;99.90
51733;DHT22;39139;53.144;6.244;2023-06-10T08:43:00;24.80;99.90
51733;DHT22;39139;53.144;6.244;2023-06-10T08:45:32;24.90;99.90
51733;DHT22;39139;53.144;6.244;2023-06-10T08:48:03;25.10;99.90
51733;DHT22;39139;53.144;6.244;2023-06-10T08:50:34;25.20;99.90
51733;DHT22;39139;53.144;6.244;2023-06-10T08:53:02;25.40;99.90
51733;DHT22;39139;53.144;6.244;2023-06-10T08:55:35;25.60;99.90
51733;DHT22;39139;53.144;6.244;2023-06-10T08:58:02;25.80;99.90
51733;DHT22;39139;53.144;6.244;2023-06-10T09:00:29;25.90;99.90
51733;DHT22;39139;53.144;6.244;2023-06-10T09:02:56;26.20;99.90
51733;DHT22;39139;53.144;6.244;2023-06-10T09:05:22;26.40;99.90
51733;DHT22;39139;53.144;6.244;2023-06-10T09:07:49;26.60;99.90
51733;DHT22;39139;53.144;6.244;2023-06-10T09:10:16;26.70;99.90
51733;DHT22;39139;53.144;6.244;2023-06-10T09:12:42;27.00;99.90
51733;DHT22;39139;53.144;6.244;2023-06-10T09:15:09;27.10;99.90
51733;DHT22;39139;53.144;6.244;2023-06-10T09:17:35;27.30;99.90
51733;DHT22;39139;53.144;6.244;2023-06-10T09:20:04;27.50;99.90
51733;DHT22;39139;53.144;6.244;2023-06-10T09:22:31;27.50;99.90
51733;DHT22;39139;53.144;6.244;2023-06-10T09:25:07;27.50;99.90
51733;DHT22;39139;53.144;6.244;2023-06-10T09:27:47;27.60;99.90
51733;DHT22;39139;53.144;6.244;2023-06-10T09:30:26;27.50;99.90
51733;DHT22;39139;53.144;6.244;2023-06-10T09:32:57;27.70;99.90
51733;DHT22;39139;53.144;6.244;2023-06-10T09:35:27;27.60;99.90
51733;DHT22;39139;53.144;6.244;2023-06-10T09:37:58;27.30;99.90
51733;DHT22;39139;53.144;6.244;2023-06-10T09:40:24;27.40;99.90
51733;DHT22;39139;53.144;6.244;2023-06-10T09:42:56;27.40;99.90
51733;DHT22;39139;53.144;6.244;2023-06-10T09:45:23;27.20;99.90
51733;DHT22;39139;53.144;6.244;2023-06-10T09:47:53;27.30;99.90
51733;DHT22;39139;53.144;6.244;2023-06-10T09:50:20;27.40;99.90
51733;DHT22;39139;53.144;6.244;2023-06-10T09:52:46;27.30;99.90
51733;DHT22;39139;53.144;6.244;2023-06-10T09:55:17;27.40;99.90
51733;DHT22;39139;53.144;6.244;2023-06-10T09:57:43;27.40;99.90
51733;DHT22;39139;53.144;6.244;2023-06-10T10:00:14;27.50;99.90
51733;DHT22;39139;53.144;6.244;2023-06-10T10:02:52;27.60;99.90
51733;DHT22;39139;53.144;6.244;2023-06-10T10:05:20;27.60;99.90
51733;DHT22;39139;53.144;6.244;2023-06-10T10:07:47;27.60;99.90
51733;DHT22;39139;53.144;6.244;2023-06-10T10:10:16;27.50;99.90
51733;DHT22;39139;53.144;6.244;2023-06-10T10:12:43;27.50;99.90
51733;DHT22;39139;53.144;6.244;2023-06-10T10:15:11;27.60;99.90
51733;DHT22;39139;53.144;6.244;2023-06-10T10:17:40;27.60;99.90
51733;DHT22;39139;53.144;6.244;2023-06-10T10:20:09;27.70;99.90
51733;DHT22;39139;53.144;6.244;2023-06-10T10:22:39;27.60;99.90
51733;DHT22;39139;53.144;6.244;2023-06-10T10:25:12;27.60;99.90
51733;DHT22;39139;53.144;6.244;2023-06-10T10:27:54;27.80;99.90
51733;DHT22;39139;53.144;6.244;2023-06-10T10:30:21;27.80;99.90
51733;DHT22;39139;53.144;6.244;2023-06-10T10:33:07;27.90;99.90
51733;DHT22;39139;53.144;6.244;2023-06-10T10:35:36;27.90;99.30
51733;DHT22;39139;53.144;6.244;2023-06-10T10:38:04;28.00;99.90
51733;DHT22;39139;53.144;6.244;2023-06-10T10:40:31;28.00;99.90
51733;DHT22;39139;53.144;6.244;2023-06-10T10:42:59;28.00;99.90
51733;DHT22;39139;53.144;6.244;2023-06-10T10:45:28;28.00;99.90
51733;DHT22;39139;53.144;6.244;2023-06-10T10:47:54;28.00;99.90
51733;DHT22;39139;53.144;6.244;2023-06-10T10:50:24;28.20;99.90
51733;DHT22;39139;53.144;6.244;2023-06-10T10:52:59;28.10;99.90
51733;DHT22;39139;53.144;6.244;2023-06-10T10:55:26;28.10;99.90
51733;DHT22;39139;53.144;6.244;2023-06-10T10:58:07;28.10;99.90
51733;DHT22;39139;53.144;6.244;2023-06-10T11:00:34;28.10;99.90
51733;DHT22;39139;53.144;6.244;2023-06-10T11:03:06;28.20;99.90
51733;DHT22;39139;53.144;6.244;2023-06-10T11:05:40;28.30;99.90
51733;DHT22;39139;53.144;6.244;2023-06-10T11:08:08;28.20;99.70
51733;DHT22;39139;53.144;6.244;2023-06-10T11:10:39;28.20;99.80
51733;DHT22;39139;53.144;6.244;2023-06-10T11:13:15;28.30;99.30
51733;DHT22;39139;53.144;6.244;2023-06-10T11:15:46;28.20;99.50
51733;DHT22;39139;53.144;6.244;2023-06-10T11:28:40;28.30;98.40
51733;DHT22;39139;53.144;6.244;2023-06-10T11:31:06;28.30;99.40
51733;DHT22;39139;53.144;6.244;2023-06-10T11:33:31;28.30;99.60
51733;DHT22;39139;53.144;6.244;2023-06-10T11:35:57;28.40;98.50
51733;DHT22;39139;53.144;6.244;2023-06-10T11:38:26;28.50;98.70
51733;DHT22;39139;53.144;6.244;2023-06-10T11:40:53;28.50;98.20
51733;DHT22;39139;53.144;6.244;2023-06-10T11:43:19;28.60;98.80
51733;DHT22;39139;53.144;6.244;2023-06-10T11:45:46;28.80;99.40
51733;DHT22;39139;53.144;6.244;2023-06-10T11:48:13;28.80;98.60
51733;DHT22;39139;53.144;6.244;2023-06-10T11:50:39;28.80;98.00
51733;DHT22;39139;53.144;6.244;2023-06-10T11:53:08;28.80;97.80
51733;DHT22;39139;53.144;6.244;2023-06-10T11:55:49;28.80;98.60
51733;DHT22;39139;53.144;6.244;2023-06-10T11:58:20;28.90;99.90
51733;DHT22;39139;53.144;6.244;2023-06-10T12:00:54;29.00;99.60
51733;DHT22;39139;53.144;6.244;2023-06-10T12:03:24;28.90;99.20
51733;DHT22;39139;53.144;6.244;2023-06-10T12:05:58;29.00;98.30
51733;DHT22;39139;53.144;6.244;2023-06-10T12:08:25;29.10;98.20
51733;DHT22;39139;53.144;6.244;2023-06-10T12:10:51;29.10;99.10
51733;DHT22;39139;53.144;6.244;2023-06-10T12:13:17;29.00;99.60
51733;DHT22;39139;53.144;6.244;2023-06-10T12:15:44;29.10;99.70
51733;DHT22;39139;53.144;6.244;2023-06-10T12:18:23;29.10;99.90
51733;DHT22;39139;53.144;6.244;2023-06-10T12:20:49;28.90;99.20
51733;DHT22;39139;53.144;6.244;2023-06-10T12:23:17;29.10;99.40
51733;DHT22;39139;53.144;6.244;2023-06-10T12:25:51;29.20;98.90
51733;DHT22;39139;53.144;6.244;2023-06-10T12:28:18;29.10;98.50
51733;DHT22;39139;53.144;6.244;2023-06-10T12:30:47;29.20;99.00
51733;DHT22;39139;53.144;6.244;2023-06-10T12:33:20;29.20;99.20
51733;DHT22;39139;53.144;6.244;2023-06-10T12:35:53;29.20;99.00
51733;DHT22;39139;53.144;6.244;2023-06-10T12:38:24;29.10;98.80
51733;DHT22;39139;53.144;6.244;2023-06-10T12:40:50;29.30;99.10
51733;DHT22;39139;53.144;6.244;2023-06-10T12:43:23;29.40;99.30
51733;DHT22;39139;53.144;6.244;2023-06-10T12:45:49;29.50;98.40
51733;DHT22;39139;53.144;6.244;2023-06-10T12:48:23;29.50;98.70
51733;DHT22;39139;53.144;6.244;2023-06-10T12:50:54;29.60;99.00
51733;DHT22;39139;53.144;6.244;2023-06-10T12:53:20;29.50;98.90
51733;DHT22;39139;53.144;6.244;2023-06-10T12:55:47;29.60;98.70
51733;DHT22;39139;53.144;6.244;2023-06-10T12:58:13;29.60;98.50
51733;DHT22;39139;53.144;6.244;2023-06-10T13:00:39;29.50;98.50
51733;DHT22;39139;53.144;6.244;2023-06-10T13:03:06;29.40;98.40
51733;DHT22;39139;53.144;6.244;2023-06-10T13:05:32;29.50;98.40
51733;DHT22;39139;53.144;6.244;2023-06-10T13:07:59;29.50;98.70
51733;DHT22;39139;53.144;6.244;2023-06-10T13:10:25;29.50;99.20
51733;DHT22;39139;53.144;6.244;2023-06-10T13:12:52;29.60;98.80
51733;DHT22;39139;53.144;6.244;2023-06-10T13:15:18;29.50;98.70
51733;DHT22;39139;53.144;6.244;2023-06-10T13:17:44;29.50;99.40
51733;DHT22;39139;53.144;6.244;2023-06-10T13:20:17;29.50;99.90
51733;DHT22;39139;53.144;6.244;2023-06-10T13:22:42;29.60;99.90
51733;DHT22;39139;53.144;6.244;2023-06-10T13:25:09;29.50;99.80
51733;DHT22;39139;53.144;6.244;2023-06-10T13:27:35;29.50;99.40
51733;DHT22;39139;53.144;6.244;2023-06-10T13:30:08;29.50;99.30
51733;DHT22;39139;53.144;6.244;2023-06-10T13:32:35;29.40;99.80
51733;DHT22;39139;53.144;6.244;2023-06-10T13:35:01;29.40;99.90
51733;DHT22;39139;53.144;6.244;2023-06-10T13:37:26;29.20;99.90
51733;DHT22;39139;53.144;6.244;2023-06-10T13:39:52;29.40;99.90
51733;DHT22;39139;53.144;6.244;2023-06-10T13:42:19;29.40;99.90
51733;DHT22;39139;53.144;6.244;2023-06-10T13:44:45;29.30;99.90
51733;DHT22;39139;53.144;6.244;2023-06-10T13:47:11;29.40;99.90
51733;DHT22;39139;53.144;6.244;2023-06-10T13:49:37;29.40;99.90
51733;DHT22;39139;53.144;6.244;2023-06-10T13:52:03;29.20;99.90
51733;DHT22;39139;53.144;6.244;2023-06-10T13:54:28;29.20;99.90
51733;DHT22;39139;53.144;6.244;2023-06-10T13:56:54;29.20;99.90
51733;DHT22;39139;53.144;6.244;2023-06-10T13:59:20;29.20;99.90
51733;DHT22;39139;53.144;6.244;2023-06-10T14:01:46;29.70;99.90
51733;DHT22;39139;53.144;6.244;2023-06-10T14:04:12;29.30;99.90
51733;DHT22;39139;53.144;6.244;2023-06-10T14:06:38;29.30;99.90
51733;DHT22;39139;53.144;6.244;2023-06-10T14:09:04;29.40;99.90
51733;DHT22;39139;53.144;6.244;2023-06-10T14:11:30;29.30;99.90
51733;DHT22;39139;53.144;6.244;2023-06-10T14:13:57;29.20;99.90
51733;DHT22;39139;53.144;6.244;2023-06-10T14:16:24;29.30;99.60
51733;DHT22;39139;53.144;6.244;2023-06-10T14:18:50;29.30;99.30
51733;DHT22;39139;53.144;6.244;2023-06-10T14:21:18;29.30;99.40
51733;DHT22;39139;53.144;6.244;2023-06-10T14:23:45;29.10;99.80
51733;DHT22;39139;53.144;6.244;2023-06-10T14:26:11;29.10;99.40
51733;DHT22;39139;53.144;6.244;2023-06-10T14:28:36;29.10;99.70
51733;DHT22;39139;53.144;6.244;2023-06-10T14:31:02;29.10;99.70
51733;DHT22;39139;53.144;6.244;2023-06-10T14:33:28;29.10;99.70
51733;DHT22;39139;53.144;6.244;2023-06-10T14:35:54;29.00;99.10
51733;DHT22;39139;53.144;6.244;2023-06-10T14:38:20;29.00;99.10
51733;DHT22;39139;53.144;6.244;2023-06-10T14:40:45;28.90;99.00
51733;DHT22;39139;53.144;6.244;2023-06-10T14:43:11;29.00;99.50
51733;DHT22;39139;53.144;6.244;2023-06-10T14:45:38;28.90;99.80
51733;DHT22;39139;53.144;6.244;2023-06-10T14:48:05;28.90;99.70
51733;DHT22;39139;53.144;6.244;2023-06-10T14:50:31;28.80;99.50
51733;DHT22;39139;53.144;6.244;2023-06-10T14:53:00;28.90;99.20
51733;DHT22;39139;53.144;6.244;2023-06-10T14:55:26;28.80;98.90
51733;DHT22;39139;53.144;6.244;2023-06-10T14:57:52;28.90;97.60
51733;DHT22;39139;53.144;6.244;2023-06-10T15:00:18;28.90;96.80
51733;DHT22;39139;53.144;6.244;2023-06-10T15:02:49;28.80;96.80
51733;DHT22;39139;53.144;6.244;2023-06-10T15:05:15;28.80;97.50
51733;DHT22;39139;53.144;6.244;2023-06-10T15:07:41;28.80;98.20
51733;DHT22;39139;53.144;6.244;2023-06-10T15:10:07;28.90;98.10
51733;DHT22;39139;53.144;6.244;2023-06-10T15:12:34;28.90;97.40
51733;DHT22;39139;53.144;6.244;2023-06-10T15:15:00;28.70;96.70
51733;DHT22;39139;53.144;6.244;2023-06-10T15:17:26;28.70;97.10
51733;DHT22;39139;53.144;6.244;2023-06-10T15:19:52;28.70;97.00
51733;DHT22;39139;53.144;6.244;2023-06-10T15:22:17;28.80;96.80
51733;DHT22;39139;53.144;6.244;2023-06-10T15:24:43;28.80;96.90
51733;DHT22;39139;53.144;6.244;2023-06-10T15:27:09;28.80;96.70
51733;DHT22;39139;53.144;6.244;2023-06-10T15:29:34;28.70;96.40
51733;DHT22;39139;53.144;6.244;2023-06-10T15:32:00;28.60;96.40
51733;DHT22;39139;53.144;6.244;2023-06-10T15:34:25;28.50;96.00
51733;DHT22;39139;53.144;6.244;2023-06-10T15:36:51;28.50;96.00
51733;DHT22;39139;53.144;6.244;2023-06-10T15:39:17;28.50;96.20
51733;DHT22;39139;53.144;6.244;2023-06-10T15:41:44;28.50;96.50
51733;DHT22;39139;53.144;6.244;2023-06-10T15:44:10;28.40;96.40